sensor_id;sensor_type;location;lat;lon;timestamp;pressure;altitude;pressure_sealevel;temperature;humidity
76054;BME280;64752;48.870;9.082;2023-03-23T00:01:14;97509.59;;;14.08;53.23
76054;BME280;64752;48.870;9.082;2023-03-23T00:03:41;97509.94;;;14.02;53.90
76054;BME280;64752;48.870;9.082;2023-03-23T00:06:08;97505.09;;;13.96;54.80
76054;BME280;64752;48.870;9.082;2023-03-23T00:08:37;97507.25;;;13.87;55.00
76054;BME280;64752;48.870;9.082;2023-03-23T00:11:06;97509.47;;;13.79;54.93
76054;BME280;64752;48.870;9.082;2023-03-23T00:13:32;97513.78;;;13.80;54.89
76054;BME280;64752;48.870;9.082;2023-03-23T00:15:58;97505.97;;;13.80;55.33
76054;BME280;64752;48.870;9.082;2023-03-23T00:18:24;97506.50;;;13.85;54.83
76054;BME280;64752;48.870;9.082;2023-03-23T00:20:52;97509.88;;;13.87;54.78
76054;BME280;64752;48.870;9.082;2023-03-23T00:23:18;97505.75;;;13.83;55.61
76054;BME280;64752;48.870;9.082;2023-03-23T00:25:46;97500.75;;;13.80;55.17
76054;BME280;64752;48.870;9.082;2023-03-23T00:28:12;97499.28;;;13.91;55.16
76054;BME280;64752;48.870;9.082;2023-03-23T00:30:39;97501.22;;;13.87;55.53
76054;BME280;64752;48.870;9.082;2023-03-23T00:33:07;97497.78;;;13.86;55.58
76054;BME280;64752;48.870;9.082;2023-03-23T00:35:33;97491.22;;;13.79;55.73
76054;BME280;64752;48.870;9.082;2023-03-23T00:37:59;97488.78;;;13.76;56.10
76054;BME280;64752;48.870;9.082;2023-03-23T00:40:25;97482.59;;;13.79;55.75
76054;BME280;64752;48.870;9.082;2023-03-23T00:42:51;97482.38;;;13.82;55.92
76054;BME280;64752;48.870;9.082;2023-03-23T00:45:16;97477.84;;;13.85;55.88
76054;BME280;64752;48.870;9.082;2023-03-23T00:47:42;97470.53;;;13.92;55.37
76054;BME280;64752;48.870;9.082;2023-03-23T00:50:12;97460.19;;;13.91;55.34
76054;BME280;64752;48.870;9.082;2023-03-23T00:52:39;97463.38;;;13.96;55.31
76054;BME280;64752;48.870;9.082;2023-03-23T00:55:06;97451.09;;;13.98;55.18
76054;BME280;64752;48.870;9.082;2023-03-23T00:57:31;97453.97;;;13.93;55.53
76054;BME280;64752;48.870;9.082;2023-03-23T00:59:57;97459.81;;;13.97;55.56
76054;BME280;64752;48.870;9.082;2023-03-23T01:02:22;97454.59;;;13.97;55.58
76054;BME280;64752;48.870;9.082;2023-03-23T01:04:49;97453.13;;;13.93;55.90
76054;BME280;64752;48.870;9.082;2023-03-23T01:07:20;97446.56;;;13.85;56.03
76054;BME280;64752;48.870;9.082;2023-03-23T01:09:46;97447.75;;;13.80;56.50
76054;BME280;64752;48.870;9.082;2023-03-23T01:12:13;97440.53;;;13.85;56.20
76054;BME280;64752;48.870;9.082;2023-03-23T01:14:43;97438.66;;;13.87;56.43
76054;BME280;64752;48.870;9.082;2023-03-23T01:17:08;97443.78;;;13.88;56.41
76054;BME280;64752;48.870;9.082;2023-03-23T01:19:33;97442.47;;;13.81;56.23
76054;BME280;64752;48.870;9.082;2023-03-23T01:21:58;97454.00;;;13.77;56.48
76054;BME280;64752;48.870;9.082;2023-03-23T01:24:24;97455.09;;;13.73;56.35
76054;BME280;64752;48.870;9.082;2023-03-23T01:26:49;97451.56;;;13.74;56.73
76054;BME280;64752;48.870;9.082;2023-03-23T01:29:15;97450.81;;;13.72;56.55
76054;BME280;64752;48.870;9.082;2023-03-23T01:31:40;97450.22;;;13.67;56.64
76054;BME280;64752;48.870;9.082;2023-03-23T01:34:07;97445.38;;;13.61;57.08
76054;BME280;64752;48.870;9.082;2023-03-23T01:36:33;97437.78;;;13.72;56.88
76054;BME280;64752;48.870;9.082;2023-03-23T01:39:00;97429.06;;;13.73;56.57
76054;BME280;64752;48.870;9.082;2023-03-23T01:41:28;97431.38;;;13.78;56.39
76054;BME280;64752;48.870;9.082;2023-03-23T01:43:55;97417.34;;;13.80;55.97
76054;BME280;64752;48.870;9.082;2023-03-23T01:46:21;97418.94;;;13.83;56.01
76054;BME280;64752;48.870;9.082;2023-03-23T01:48:50;97414.81;;;13.79;56.55
76054;BME280;64752;48.870;9.082;2023-03-23T01:51:17;97415.44;;;13.68;56.51
76054;BME280;64752;48.870;9.082;2023-03-23T01:54:04;97411.81;;;13.71;56.49
76054;BME280;64752;48.870;9.082;2023-03-23T01:56:38;97412.09;;;13.66;56.69
76054;BME280;64752;48.870;9.082;2023-03-23T01:59:07;97416.06;;;13.57;57.04
76054;BME280;64752;48.870;9.082;2023-03-23T02:01:34;97415.03;;;13.60;56.65
76054;BME280;64752;48.870;9.082;2023-03-23T02:04:04;97419.09;;;13.49;57.26
76054;BME280;64752;48.870;9.082;2023-03-23T02:06:30;97410.34;;;13.50;57.27
76054;BME280;64752;48.870;9.082;2023-03-23T02:08:56;97404.00;;;13.40;58.03
76054;BME280;64752;48.870;9.082;2023-03-23T02:11:23;97411.44;;;13.30;58.86
76054;BME280;64752;48.870;9.082;2023-03-23T02:13:49;97411.38;;;13.16;59.43
76054;BME280;64752;48.870;9.082;2023-03-23T02:16:27;97401.88;;;13.15;59.33
76054;BME280;64752;48.870;9.082;2023-03-23T02:19:06;97400.22;;;13.14;58.72
76054;BME280;64752;48.870;9.082;2023-03-23T02:22:00;97402.81;;;13.14;58.07
76054;BME280;64752;48.870;9.082;2023-03-23T02:30:43;97393.91;;;13.02;58.21
76054;BME280;64752;48.870;9.082;2023-03-23T02:36:07;97385.25;;;12.86;59.13
76054;BME280;64752;48.870;9.082;2023-03-23T02:38:43;97376.44;;;12.88;58.56
76054;BME280;64752;48.870;9.082;2023-03-23T02:41:10;97371.31;;;12.87;58.77
76054;BME280;64752;48.870;9.082;2023-03-23T02:43:40;97365.53;;;12.82;58.96
76054;BME280;64752;48.870;9.082;2023-03-23T02:46:09;97370.38;;;12.88;58.87
76054;BME280;64752;48.870;9.082;2023-03-23T02:48:36;97366.38;;;12.98;58.68
76054;BME280;64752;48.870;9.082;2023-03-23T02:51:04;97355.94;;;12.98;59.00
76054;BME280;64752;48.870;9.082;2023-03-23T02:53:33;97350.66;;;13.00;59.31
76054;BME280;64752;48.870;9.082;2023-03-23T02:56:01;97341.84;;;13.02;59.03
76054;BME280;64752;48.870;9.082;2023-03-23T02:58:28;97346.97;;;13.04;59.33
76054;BME280;64752;48.870;9.082;2023-03-23T03:00:54;97347.56;;;13.09;59.07
76054;BME280;64752;48.870;9.082;2023-03-23T03:03:23;97352.06;;;13.21;58.80
76054;BME280;64752;48.870;9.082;2023-03-23T03:06:00;97350.13;;;13.25;58.63
76054;BME280;64752;48.870;9.082;2023-03-23T03:08:52;97344.34;;;13.36;57.96
76054;BME280;64752;48.870;9.082;2023-03-23T03:11:20;97343.50;;;13.35;58.56
76054;BME280;64752;48.870;9.082;2023-03-23T03:14:24;97354.66;;;13.37;58.30
76054;BME280;64752;48.870;9.082;2023-03-23T03:16:53;97346.50;;;13.43;57.27
76054;BME280;64752;48.870;9.082;2023-03-23T03:21:54;97352.69;;;13.57;57.00
76054;BME280;64752;48.870;9.082;2023-03-23T03:24:24;97339.69;;;13.57;56.80
76054;BME280;64752;48.870;9.082;2023-03-23T03:26:52;97338.94;;;13.69;56.32
76054;BME280;64752;48.870;9.082;2023-03-23T03:29:23;97334.38;;;13.73;56.11
76054;BME280;64752;48.870;9.082;2023-03-23T03:31:51;97333.97;;;13.80;56.19
76054;BME280;64752;48.870;9.082;2023-03-23T03:34:21;97332.34;;;13.78;56.28
76054;BME280;64752;48.870;9.082;2023-03-23T03:36:48;97342.88;;;13.76;56.57
76054;BME280;64752;48.870;9.082;2023-03-23T03:39:16;97338.88;;;13.85;55.95
76054;BME280;64752;48.870;9.082;2023-03-23T03:41:42;97342.88;;;13.91;55.73
76054;BME280;64752;48.870;9.082;2023-03-23T03:44:08;97340.19;;;13.92;55.54
76054;BME280;64752;48.870;9.082;2023-03-23T03:46:35;97326.34;;;13.92;55.76
76054;BME280;64752;48.870;9.082;2023-03-23T03:49:02;97326.03;;;13.82;56.48
76054;BME280;64752;48.870;9.082;2023-03-23T03:51:29;97326.69;;;13.85;55.94
76054;BME280;64752;48.870;9.082;2023-03-23T03:53:55;97321.84;;;13.79;56.29
76054;BME280;64752;48.870;9.082;2023-03-23T03:56:22;97332.28;;;13.79;56.32
76054;BME280;64752;48.870;9.082;2023-03-23T03:58:49;97330.56;;;13.78;56.31
76054;BME280;64752;48.870;9.082;2023-03-23T04:01:15;97338.06;;;13.84;55.32
76054;BME280;64752;48.870;9.082;2023-03-23T04:03:41;97335.91;;;13.77;55.86
76054;BME280;64752;48.870;9.082;2023-03-23T04:06:07;97346.66;;;13.71;56.59
76054;BME280;64752;48.870;9.082;2023-03-23T04:08:37;97331.44;;;13.79;55.83
76054;BME280;64752;48.870;9.082;2023-03-23T04:11:04;97340.47;;;13.73;56.21
76054;BME280;64752;48.870;9.082;2023-03-23T04:13:30;97345.38;;;13.78;55.98
76054;BME280;64752;48.870;9.082;2023-03-23T04:15:55;97352.16;;;13.66;56.66
76054;BME280;64752;48.870;9.082;2023-03-23T04:18:21;97346.75;;;13.69;56.90
76054;BME280;64752;48.870;9.082;2023-03-23T04:20:48;97352.25;;;13.64;56.90
76054;BME280;64752;48.870;9.082;2023-03-23T04:23:16;97347.22;;;13.61;57.17
76054;BME280;64752;48.870;9.082;2023-03-23T04:25:51;97350.75;;;13.60;57.25
76054;BME280;64752;48.870;9.082;2023-03-23T04:28:18;97345.44;;;13.62;57.74
76054;BME280;64752;48.870;9.082;2023-03-23T04:30:45;97338.56;;;13.61;57.53
76054;BME280;64752;48.870;9.082;2023-03-23T04:33:14;97332.22;;;13.65;57.69
76054;BME280;64752;48.870;9.082;2023-03-23T04:35:41;97333.38;;;13.75;57.24
76054;BME280;64752;48.870;9.082;2023-03-23T04:38:07;97316.25;;;13.71;58.03
76054;BME280;64752;48.870;9.082;2023-03-23T04:40:36;97330.78;;;13.75;57.60
76054;BME280;64752;48.870;9.082;2023-03-23T04:43:02;97332.22;;;13.95;56.76
76054;BME280;64752;48.870;9.082;2023-03-23T04:45:32;97335.94;;;14.05;56.16
76054;BME280;64752;48.870;9.082;2023-03-23T04:47:58;97329.88;;;14.19;55.51
76054;BME280;64752;48.870;9.082;2023-03-23T04:50:30;97330.16;;;14.15;56.02
76054;BME280;64752;48.870;9.082;2023-03-23T04:52:58;97335.66;;;14.24;55.23
76054;BME280;64752;48.870;9.082;2023-03-23T04:55:25;97334.53;;;14.29;55.13
76054;BME280;64752;48.870;9.082;2023-03-23T04:57:51;97333.34;;;14.34;55.08
76054;BME280;64752;48.870;9.082;2023-03-23T05:00:17;97342.81;;;14.35;55.24
76054;BME280;64752;48.870;9.082;2023-03-23T05:02:44;97333.25;;;14.36;55.24
76054;BME280;64752;48.870;9.082;2023-03-23T05:05:12;97340.97;;;14.37;55.00
76054;BME280;64752;48.870;9.082;2023-03-23T05:07:38;97333.34;;;14.34;55.14
76054;BME280;64752;48.870;9.082;2023-03-23T05:10:05;97333.31;;;14.49;54.69
76054;BME280;64752;48.870;9.082;2023-03-23T05:12:33;97332.03;;;14.41;54.88
76054;BME280;64752;48.870;9.082;2023-03-23T05:14:58;97339.94;;;14.40;54.65
76054;BME280;64752;48.870;9.082;2023-03-23T05:17:24;97337.25;;;14.41;54.60
76054;BME280;64752;48.870;9.082;2023-03-23T05:19:50;97331.06;;;14.42;54.40
76054;BME280;64752;48.870;9.082;2023-03-23T05:22:16;97335.75;;;14.37;54.43
76054;BME280;64752;48.870;9.082;2023-03-23T05:24:41;97334.34;;;14.32;54.88
76054;BME280;64752;48.870;9.082;2023-03-23T05:27:11;97340.41;;;14.32;54.57
76054;BME280;64752;48.870;9.082;2023-03-23T05:29:36;97335.28;;;14.31;54.39
76054;BME280;64752;48.870;9.082;2023-03-23T05:32:03;97339.84;;;14.27;55.00
76054;BME280;64752;48.870;9.082;2023-03-23T05:34:30;97338.47;;;14.21;54.88
76054;BME280;64752;48.870;9.082;2023-03-23T05:36:58;97332.69;;;14.16;55.03
76054;BME280;64752;48.870;9.082;2023-03-23T05:39:23;97335.28;;;14.16;54.71
76054;BME280;64752;48.870;9.082;2023-03-23T05:41:49;97331.19;;;14.12;55.11
76054;BME280;64752;48.870;9.082;2023-03-23T05:44:15;97332.09;;;14.11;55.27
76054;BME280;64752;48.870;9.082;2023-03-23T05:46:41;97328.50;;;14.14;55.05
76054;BME280;64752;48.870;9.082;2023-03-23T05:49:07;97341.88;;;14.07;55.72
76054;BME280;64752;48.870;9.082;2023-03-23T05:51:33;97341.97;;;14.06;55.51
76054;BME280;64752;48.870;9.082;2023-03-23T05:53:58;97349.91;;;14.04;55.54
76054;BME280;64752;48.870;9.082;2023-03-23T05:56:24;97342.81;;;14.06;55.66
76054;BME280;64752;48.870;9.082;2023-03-23T05:58:49;97352.41;;;14.06;55.62
76054;BME280;64752;48.870;9.082;2023-03-23T06:01:15;97348.31;;;14.02;56.48
76054;BME280;64752;48.870;9.082;2023-03-23T06:03:41;97363.94;;;14.02;56.30
76054;BME280;64752;48.870;9.082;2023-03-23T06:06:09;97361.72;;;13.96;56.70
76054;BME280;64752;48.870;9.082;2023-03-23T06:08:35;97359.75;;;13.99;56.57
76054;BME280;64752;48.870;9.082;2023-03-23T06:11:02;97360.22;;;13.92;56.93
76054;BME280;64752;48.870;9.082;2023-03-23T06:13:27;97372.75;;;13.85;57.82
76054;BME280;64752;48.870;9.082;2023-03-23T06:15:55;97377.16;;;13.84;57.77
76054;BME280;64752;48.870;9.082;2023-03-23T06:18:22;97381.03;;;13.77;57.74
76054;BME280;64752;48.870;9.082;2023-03-23T06:20:48;97384.56;;;13.76;58.08
76054;BME280;64752;48.870;9.082;2023-03-23T06:23:14;97396.59;;;13.79;58.19
76054;BME280;64752;48.870;9.082;2023-03-23T06:25:39;97394.16;;;13.76;58.14
76054;BME280;64752;48.870;9.082;2023-03-23T06:28:05;97394.81;;;13.79;58.07
76054;BME280;64752;48.870;9.082;2023-03-23T06:30:31;97398.25;;;13.80;57.96
76054;BME280;64752;48.870;9.082;2023-03-23T06:32:56;97402.63;;;13.79;58.41
76054;BME280;64752;48.870;9.082;2023-03-23T06:35:22;97405.72;;;13.86;57.86
76054;BME280;64752;48.870;9.082;2023-03-23T06:37:47;97405.97;;;13.81;58.89
76054;BME280;64752;48.870;9.082;2023-03-23T06:40:12;97412.03;;;13.82;59.60
76054;BME280;64752;48.870;9.082;2023-03-23T06:42:38;97420.97;;;13.78;59.40
76054;BME280;64752;48.870;9.082;2023-03-23T06:45:04;97411.84;;;13.85;58.64
76054;BME280;64752;48.870;9.082;2023-03-23T06:47:30;97420.28;;;14.04;58.13
76054;BME280;64752;48.870;9.082;2023-03-23T06:49:56;97417.06;;;14.30;57.06
76054;BME280;64752;48.870;9.082;2023-03-23T06:52:22;97410.47;;;14.38;56.23
76054;BME280;64752;48.870;9.082;2023-03-23T06:54:49;97411.81;;;14.74;55.57
76054;BME280;64752;48.870;9.082;2023-03-23T06:57:14;97417.19;;;14.71;55.58
76054;BME280;64752;48.870;9.082;2023-03-23T06:59:40;97419.72;;;14.73;55.71
76054;BME280;64752;48.870;9.082;2023-03-23T07:02:10;97419.88;;;14.55;55.58
76054;BME280;64752;48.870;9.082;2023-03-23T07:04:37;97420.16;;;14.51;56.20
76054;BME280;64752;48.870;9.082;2023-03-23T07:07:03;97422.19;;;14.31;57.31
76054;BME280;64752;48.870;9.082;2023-03-23T07:09:29;97423.97;;;14.45;57.35
76054;BME280;64752;48.870;9.082;2023-03-23T07:11:54;97435.13;;;14.33;57.35
76054;BME280;64752;48.870;9.082;2023-03-23T07:14:20;97438.56;;;14.33;57.40
76054;BME280;64752;48.870;9.082;2023-03-23T07:16:46;97449.97;;;14.32;57.29
76054;BME280;64752;48.870;9.082;2023-03-23T07:19:12;97437.56;;;14.36;57.33
76054;BME280;64752;48.870;9.082;2023-03-23T07:21:37;97457.13;;;14.29;57.98
76054;BME280;64752;48.870;9.082;2023-03-23T07:24:03;97450.97;;;14.30;57.74
76054;BME280;64752;48.870;9.082;2023-03-23T07:26:28;97455.28;;;14.45;57.64
76054;BME280;64752;48.870;9.082;2023-03-23T07:28:54;97467.94;;;14.37;57.52
76054;BME280;64752;48.870;9.082;2023-03-23T07:31:19;97476.16;;;14.45;58.70
76054;BME280;64752;48.870;9.082;2023-03-23T07:33:45;97475.94;;;14.48;57.13
76054;BME280;64752;48.870;9.082;2023-03-23T07:36:11;97480.56;;;14.59;57.64
76054;BME280;64752;48.870;9.082;2023-03-23T07:38:37;97484.56;;;14.64;56.62
76054;BME280;64752;48.870;9.082;2023-03-23T07:41:02;97487.69;;;14.86;56.00
76054;BME280;64752;48.870;9.082;2023-03-23T07:43:28;97486.56;;;14.90;56.28
76054;BME280;64752;48.870;9.082;2023-03-23T07:45:54;97483.56;;;14.96;57.25
76054;BME280;64752;48.870;9.082;2023-03-23T07:48:19;97485.97;;;15.13;56.43
76054;BME280;64752;48.870;9.082;2023-03-23T07:50:45;97489.00;;;15.34;56.11
76054;BME280;64752;48.870;9.082;2023-03-23T07:53:10;97479.63;;;15.59;56.08
76054;BME280;64752;48.870;9.082;2023-03-23T07:55:36;97483.84;;;15.89;55.46
76054;BME280;64752;48.870;9.082;2023-03-23T07:58:02;97475.91;;;15.90;55.54
76054;BME280;64752;48.870;9.082;2023-03-23T08:00:28;97484.63;;;16.04;55.10
76054;BME280;64752;48.870;9.082;2023-03-23T08:02:56;97487.16;;;15.64;56.93
76054;BME280;64752;48.870;9.082;2023-03-23T08:05:25;97489.72;;;15.51;57.07
76054;BME280;64752;48.870;9.082;2023-03-23T08:07:51;97491.56;;;15.77;56.46
76054;BME280;64752;48.870;9.082;2023-03-23T08:10:17;97495.94;;;15.77;57.16
76054;BME280;64752;48.870;9.082;2023-03-23T08:12:44;97497.53;;;15.79;56.99
76054;BME280;64752;48.870;9.082;2023-03-23T08:15:11;97497.16;;;15.98;56.64
76054;BME280;64752;48.870;9.082;2023-03-23T08:17:40;97493.66;;;15.85;57.37
76054;BME280;64752;48.870;9.082;2023-03-23T08:20:07;97506.19;;;16.07;57.08
76054;BME280;64752;48.870;9.082;2023-03-23T08:22:37;97499.88;;;15.97;57.10
76054;BME280;64752;48.870;9.082;2023-03-23T08:25:04;97501.59;;;15.84;57.35
76054;BME280;64752;48.870;9.082;2023-03-23T08:27:29;97506.09;;;15.67;58.13
76054;BME280;64752;48.870;9.082;2023-03-23T08:29:55;97508.44;;;15.86;57.48
76054;BME280;64752;48.870;9.082;2023-03-23T08:32:20;97503.88;;;16.15;57.50
76054;BME280;64752;48.870;9.082;2023-03-23T08:34:46;97512.94;;;15.97;57.75
76054;BME280;64752;48.870;9.082;2023-03-23T08:37:12;97504.63;;;15.77;58.37
76054;BME280;64752;48.870;9.082;2023-03-23T08:39:38;97509.03;;;15.90;58.40
76054;BME280;64752;48.870;9.082;2023-03-23T08:42:03;97508.91;;;16.06;57.56
76054;BME280;64752;48.870;9.082;2023-03-23T08:44:29;97515.22;;;16.16;57.36
76054;BME280;64752;48.870;9.082;2023-03-23T08:46:54;97519.44;;;16.04;57.66
76054;BME280;64752;48.870;9.082;2023-03-23T08:49:23;97516.09;;;15.75;58.50
76054;BME280;64752;48.870;9.082;2023-03-23T08:51:48;97532.06;;;15.70;58.73
76054;BME280;64752;48.870;9.082;2023-03-23T08:54:14;97530.41;;;15.55;58.98
76054;BME280;64752;48.870;9.082;2023-03-23T08:56:39;97536.91;;;15.62;59.20
76054;BME280;64752;48.870;9.082;2023-03-23T08:59:04;97521.81;;;15.53;59.20
76054;BME280;64752;48.870;9.082;2023-03-23T09:01:30;97529.38;;;15.57;59.22
76054;BME280;64752;48.870;9.082;2023-03-23T09:03:55;97528.09;;;15.50;58.63
76054;BME280;64752;48.870;9.082;2023-03-23T09:06:21;97528.75;;;15.54;59.13
76054;BME280;64752;48.870;9.082;2023-03-23T09:08:47;97532.34;;;15.66;58.58
76054;BME280;64752;48.870;9.082;2023-03-23T09:11:13;97527.75;;;15.69;58.77
76054;BME280;64752;48.870;9.082;2023-03-23T09:13:39;97531.59;;;15.78;58.55
76054;BME280;64752;48.870;9.082;2023-03-23T09:16:05;97545.03;;;15.72;57.86
76054;BME280;64752;48.870;9.082;2023-03-23T09:18:32;97544.56;;;15.79;57.79
76054;BME280;64752;48.870;9.082;2023-03-23T09:20:58;97554.78;;;15.97;57.62
76054;BME280;64752;48.870;9.082;2023-03-23T09:23:24;97554.59;;;16.00;57.65
76054;BME280;64752;48.870;9.082;2023-03-23T09:25:50;97558.25;;;15.97;57.59
76054;BME280;64752;48.870;9.082;2023-03-23T09:28:16;97563.44;;;16.25;56.96
76054;BME280;64752;48.870;9.082;2023-03-23T09:30:42;97566.06;;;16.25;57.13
76054;BME280;64752;48.870;9.082;2023-03-23T09:33:09;97571.56;;;16.07;57.43
76054;BME280;64752;48.870;9.082;2023-03-23T09:35:35;97570.28;;;16.00;57.97
76054;BME280;64752;48.870;9.082;2023-03-23T09:38:04;97572.41;;;16.08;57.51
76054;BME280;64752;48.870;9.082;2023-03-23T09:43:20;97568.59;;;16.26;56.85
76054;BME280;64752;48.870;9.082;2023-03-23T09:46:33;97566.53;;;16.04;57.08
76054;BME280;64752;48.870;9.082;2023-03-23T09:48:52;97559.16;;;16.51;56.19
76054;BME280;64752;48.870;9.082;2023-03-23T09:53:48;97577.75;;;16.46;56.49
76054;BME280;64752;48.870;9.082;2023-03-23T09:56:15;97569.72;;;16.62;56.35
76054;BME280;64752;48.870;9.082;2023-03-23T09:58:55;97593.09;;;16.25;57.63
76054;BME280;64752;48.870;9.082;2023-03-23T10:01:28;97586.13;;;16.38;56.95
76054;BME280;64752;48.870;9.082;2023-03-23T10:04:07;97578.75;;;16.58;56.48
76054;BME280;64752;48.870;9.082;2023-03-23T10:06:34;97584.84;;;16.71;56.91
76054;BME280;64752;48.870;9.082;2023-03-23T10:09:03;97590.66;;;16.49;57.48
76054;BME280;64752;48.870;9.082;2023-03-23T10:12:04;97586.25;;;17.03;56.42
76054;BME280;64752;48.870;9.082;2023-03-23T10:17:30;97593.59;;;17.86;53.88
76054;BME280;64752;48.870;9.082;2023-03-23T10:20:25;97585.13;;;18.06;54.00
76054;BME280;64752;48.870;9.082;2023-03-23T10:23:02;97581.22;;;18.12;53.68
76054;BME280;64752;48.870;9.082;2023-03-23T10:25:34;97598.50;;;17.41;54.77
76054;BME280;64752;48.870;9.082;2023-03-23T10:28:13;97595.31;;;18.71;51.67
76054;BME280;64752;48.870;9.082;2023-03-23T10:30:45;97591.88;;;19.28;50.44
76054;BME280;64752;48.870;9.082;2023-03-23T10:33:18;97591.03;;;18.69;52.00
76054;BME280;64752;48.870;9.082;2023-03-23T10:35:50;97598.06;;;19.16;50.93
76054;BME280;64752;48.870;9.082;2023-03-23T10:38:56;97596.56;;;18.89;51.54
76054;BME280;64752;48.870;9.082;2023-03-23T10:41:22;97601.06;;;18.16;54.27
76054;BME280;64752;48.870;9.082;2023-03-23T10:43:48;97600.00;;;17.82;54.27
76054;BME280;64752;48.870;9.082;2023-03-23T10:48:54;97598.06;;;17.47;55.52
76054;BME280;64752;48.870;9.082;2023-03-23T10:51:28;97592.13;;;17.19;55.96
76054;BME280;64752;48.870;9.082;2023-03-23T10:54:00;97604.69;;;17.27;55.82
76054;BME280;64752;48.870;9.082;2023-03-23T10:56:29;97590.97;;;17.86;54.35
76054;BME280;64752;48.870;9.082;2023-03-23T10:59:10;97592.69;;;18.11;52.64
76054;BME280;64752;48.870;9.082;2023-03-23T11:01:36;97588.03;;;17.28;55.76
76054;BME280;64752;48.870;9.082;2023-03-23T11:04:01;97590.88;;;17.87;54.00
76054;BME280;64752;48.870;9.082;2023-03-23T11:06:30;97584.09;;;17.59;55.10
76054;BME280;64752;48.870;9.082;2023-03-23T11:09:03;97584.72;;;17.63;54.89
76054;BME280;64752;48.870;9.082;2023-03-23T11:11:38;97582.00;;;17.51;55.48
76054;BME280;64752;48.870;9.082;2023-03-23T11:14:24;97585.19;;;17.81;54.89
76054;BME280;64752;48.870;9.082;2023-03-23T11:16:59;97584.25;;;17.32;56.33
76054;BME280;64752;48.870;9.082;2023-03-23T11:19:33;97582.78;;;17.15;56.56
76054;BME280;64752;48.870;9.082;2023-03-23T11:24:40;97579.13;;;17.18;56.95
76054;BME280;64752;48.870;9.082;2023-03-23T11:27:07;97582.75;;;17.53;56.07
76054;BME280;64752;48.870;9.082;2023-03-23T11:29:34;97580.78;;;17.31;56.61
76054;BME280;64752;48.870;9.082;2023-03-23T11:34:52;97571.34;;;18.16;54.55
76054;BME280;64752;48.870;9.082;2023-03-23T11:37:28;97573.34;;;18.72;53.31
76054;BME280;64752;48.870;9.082;2023-03-23T11:50:26;97562.81;;;18.60;53.19
76054;BME280;64752;48.870;9.082;2023-03-23T11:58:17;97580.16;;;18.39;54.14
76054;BME280;64752;48.870;9.082;2023-03-23T12:00:55;97571.06;;;18.07;54.69
76054;BME280;64752;48.870;9.082;2023-03-23T12:04:12;97577.66;;;18.13;54.97
76054;BME280;64752;48.870;9.082;2023-03-23T12:06:30;97575.44;;;18.91;52.87
76054;BME280;64752;48.870;9.082;2023-03-23T12:17:51;97564.50;;;18.73;53.12
76054;BME280;64752;48.870;9.082;2023-03-23T12:23:35;97571.88;;;18.92;53.58
76054;BME280;64752;48.870;9.082;2023-03-23T12:34:30;97548.22;;;19.82;50.96
76054;BME280;64752;48.870;9.082;2023-03-23T12:42:20;97541.50;;;20.96;48.98
76054;BME280;64752;48.870;9.082;2023-03-23T12:44:50;97542.78;;;21.32;47.90
76054;BME280;64752;48.870;9.082;2023-03-23T12:47:35;97540.22;;;20.69;49.04
76054;BME280;64752;48.870;9.082;2023-03-23T12:50:13;97536.34;;;20.52;49.85
76054;BME280;64752;48.870;9.082;2023-03-23T12:55:33;97533.88;;;20.39;49.21
76054;BME280;64752;48.870;9.082;2023-03-23T12:58:07;97533.00;;;20.29;49.61
76054;BME280;64752;48.870;9.082;2023-03-23T13:03:12;97512.34;;;20.13;48.41
76054;BME280;64752;48.870;9.082;2023-03-23T13:08:19;97520.75;;;20.07;47.19
76054;BME280;64752;48.870;9.082;2023-03-23T13:10:49;97507.53;;;19.86;48.84
76054;BME280;64752;48.870;9.082;2023-03-23T13:13:39;97509.59;;;20.36;49.82
76054;BME280;64752;48.870;9.082;2023-03-23T13:24:24;97488.38;;;21.01;48.44
76054;BME280;64752;48.870;9.082;2023-03-23T13:26:51;97495.53;;;21.20;47.89
76054;BME280;64752;48.870;9.082;2023-03-23T13:29:21;97488.88;;;21.66;44.96
76054;BME280;64752;48.870;9.082;2023-03-23T13:31:50;97491.94;;;20.90;44.92
76054;BME280;64752;48.870;9.082;2023-03-23T13:42:17;97485.31;;;19.68;47.11
76054;BME280;64752;48.870;9.082;2023-03-23T13:49:55;97466.53;;;19.17;47.74
76054;BME280;64752;48.870;9.082;2023-03-23T13:52:36;97471.53;;;18.98;49.18
76054;BME280;64752;48.870;9.082;2023-03-23T14:11:19;97449.28;;;18.68;49.25
76054;BME280;64752;48.870;9.082;2023-03-23T14:14:07;97444.47;;;18.50;50.42
76054;BME280;64752;48.870;9.082;2023-03-23T14:16:43;97435.94;;;18.71;50.16
76054;BME280;64752;48.870;9.082;2023-03-23T14:19:19;97424.25;;;18.86;49.54
76054;BME280;64752;48.870;9.082;2023-03-23T14:21:52;97413.03;;;18.84;50.34
76054;BME280;64752;48.870;9.082;2023-03-23T14:24:24;97406.31;;;19.14;49.67
76054;BME280;64752;48.870;9.082;2023-03-23T14:29:41;97412.19;;;18.84;49.25
76054;BME280;64752;48.870;9.082;2023-03-23T14:32:13;97423.75;;;18.59;50.53
76054;BME280;64752;48.870;9.082;2023-03-23T14:34:39;97422.44;;;18.64;50.48
76054;BME280;64752;48.870;9.082;2023-03-23T14:37:11;97427.09;;;18.61;50.62
76054;BME280;64752;48.870;9.082;2023-03-23T14:39:37;97426.09;;;18.39;50.62
76054;BME280;64752;48.870;9.082;2023-03-23T14:42:11;97428.00;;;18.48;51.20
76054;BME280;64752;48.870;9.082;2023-03-23T14:44:43;97430.53;;;18.39;50.22
76054;BME280;64752;48.870;9.082;2023-03-23T14:47:29;97425.97;;;18.29;50.40
76054;BME280;64752;48.870;9.082;2023-03-23T14:49:57;97433.22;;;18.15;51.62
76054;BME280;64752;48.870;9.082;2023-03-23T14:52:25;97435.97;;;18.24;50.91
76054;BME280;64752;48.870;9.082;2023-03-23T14:54:51;97438.16;;;18.42;50.79
76054;BME280;64752;48.870;9.082;2023-03-23T14:57:20;97440.50;;;18.22;50.86
76054;BME280;64752;48.870;9.082;2023-03-23T14:59:51;97428.00;;;18.37;50.76
76054;BME280;64752;48.870;9.082;2023-03-23T15:02:22;97433.84;;;18.41;50.73
76054;BME280;64752;48.870;9.082;2023-03-23T15:04:51;97439.00;;;18.42;50.26
76054;BME280;64752;48.870;9.082;2023-03-23T15:07:19;97431.34;;;18.39;50.46